sensor_id;sensor_type;location;lat;lon;timestamp;temperature;humidity
13488;DHT22;6816;48.506;9.050;2023-02-15T00:01:08;1.60;95.80
13488;DHT22;6816;48.506;9.050;2023-02-15T00:04:09;1.50;95.70
13488;DHT22;6816;48.506;9.050;2023-02-15T00:07:17;1.50;95.70
13488;DHT22;6816;48.506;9.050;2023-02-15T00:10:18;1.50;95.50
13488;DHT22;6816;48.506;9.050;2023-02-15T00:13:19;1.70;95.50
13488;DHT22;6816;48.506;9.050;2023-02-15T00:16:20;1.40;95.30
13488;DHT22;6816;48.506;9.050;2023-02-15T00:19:21;1.50;95.30
13488;DHT22;6816;48.506;9.050;2023-02-15T00:22:21;1.40;95.30
13488;DHT22;6816;48.506;9.050;2023-02-15T00:25:22;1.40;95.30
13488;DHT22;6816;48.506;9.050;2023-02-15T00:28:23;1.50;95.40
13488;DHT22;6816;48.506;9.050;2023-02-15T00:31:24;1.20;95.40
13488;DHT22;6816;48.506;9.050;2023-02-15T00:34:26;1.20;95.50
13488;DHT22;6816;48.506;9.050;2023-02-15T00:37:27;1.20;95.50
13488;DHT22;6816;48.506;9.050;2023-02-15T00:40:27;1.20;95.60
13488;DHT22;6816;48.506;9.050;2023-02-15T00:43:29;1.20;95.60
13488;DHT22;6816;48.506;9.050;2023-02-15T00:46:31;1.10;95.60
13488;DHT22;6816;48.506;9.050;2023-02-15T00:49:32;1.10;95.60
13488;DHT22;6816;48.506;9.050;2023-02-15T00:52:33;1.20;95.50
13488;DHT22;6816;48.506;9.050;2023-02-15T00:55:33;1.10;95.50
13488;DHT22;6816;48.506;9.050;2023-02-15T00:58:34;1.10;95.50
13488;DHT22;6816;48.506;9.050;2023-02-15T01:01:34;1.00;95.40
13488;DHT22;6816;48.506;9.050;2023-02-15T01:04:35;1.00;95.40
13488;DHT22;6816;48.506;9.050;2023-02-15T01:07:36;1.00;95.40
13488;DHT22;6816;48.506;9.050;2023-02-15T01:10:36;0.90;95.40
13488;DHT22;6816;48.506;9.050;2023-02-15T01:13:38;0.90;95.40
13488;DHT22;6816;48.506;9.050;2023-02-15T01:16:38;0.90;95.50
13488;DHT22;6816;48.506;9.050;2023-02-15T01:19:39;0.90;95.50
13488;DHT22;6816;48.506;9.050;2023-02-15T01:22:39;0.80;95.50
13488;DHT22;6816;48.506;9.050;2023-02-15T01:25:40;1.10;95.50
13488;DHT22;6816;48.506;9.050;2023-02-15T01:28:41;0.80;95.30
13488;DHT22;6816;48.506;9.050;2023-02-15T01:31:41;0.80;95.40
13488;DHT22;6816;48.506;9.050;2023-02-15T01:34:42;0.80;95.40
13488;DHT22;6816;48.506;9.050;2023-02-15T01:37:43;0.70;95.40
13488;DHT22;6816;48.506;9.050;2023-02-15T01:40:43;0.70;95.50
13488;DHT22;6816;48.506;9.050;2023-02-15T01:43:47;0.70;95.50
13488;DHT22;6816;48.506;9.050;2023-02-15T01:46:51;0.80;95.50
13488;DHT22;6816;48.506;9.050;2023-02-15T01:50:11;0.70;95.50
13488;DHT22;6816;48.506;9.050;2023-02-15T01:53:32;0.70;95.40
13488;DHT22;6816;48.506;9.050;2023-02-15T01:56:36;0.70;95.50
13488;DHT22;6816;48.506;9.050;2023-02-15T01:59:38;0.60;95.40
13488;DHT22;6816;48.506;9.050;2023-02-15T02:02:41;0.60;95.40
13488;DHT22;6816;48.506;9.050;2023-02-15T02:05:43;0.60;95.40
13488;DHT22;6816;48.506;9.050;2023-02-15T02:08:44;0.60;95.50
13488;DHT22;6816;48.506;9.050;2023-02-15T02:11:47;0.50;95.50
13488;DHT22;6816;48.506;9.050;2023-02-15T02:14:49;0.50;95.50
13488;DHT22;6816;48.506;9.050;2023-02-15T02:18:41;0.50;95.60
13488;DHT22;6816;48.506;9.050;2023-02-15T02:35:08;0.50;95.60
13488;DHT22;6816;48.506;9.050;2023-02-15T02:41:49;0.50;95.70
13488;DHT22;6816;48.506;9.050;2023-02-15T02:45:39;0.50;95.80
13488;DHT22;6816;48.506;9.050;2023-02-15T02:48:24;0.50;95.70
13488;DHT22;6816;48.506;9.050;2023-02-15T02:51:26;0.40;95.70
13488;DHT22;6816;48.506;9.050;2023-02-15T02:54:27;0.40;95.70
13488;DHT22;6816;48.506;9.050;2023-02-15T02:57:30;0.50;95.70
13488;DHT22;6816;48.506;9.050;2023-02-15T03:00:57;0.40;95.60
13488;DHT22;6816;48.506;9.050;2023-02-15T03:04:05;0.40;95.50
13488;DHT22;6816;48.506;9.050;2023-02-15T03:07:12;0.40;95.60
13488;DHT22;6816;48.506;9.050;2023-02-15T03:10:15;0.40;95.50
13488;DHT22;6816;48.506;9.050;2023-02-15T03:13:18;0.30;95.40
13488;DHT22;6816;48.506;9.050;2023-02-15T03:16:20;0.40;95.40
13488;DHT22;6816;48.506;9.050;2023-02-15T03:19:30;0.20;95.20
13488;DHT22;6816;48.506;9.050;2023-02-15T03:22:36;0.20;95.20
13488;DHT22;6816;48.506;9.050;2023-02-15T03:25:40;0.20;95.20
13488;DHT22;6816;48.506;9.050;2023-02-15T03:28:44;0.20;95.30
13488;DHT22;6816;48.506;9.050;2023-02-15T03:31:50;0.20;95.40
13488;DHT22;6816;48.506;9.050;2023-02-15T03:34:52;0.10;95.40
13488;DHT22;6816;48.506;9.050;2023-02-15T03:38:01;0.20;95.50
13488;DHT22;6816;48.506;9.050;2023-02-15T03:41:04;0.20;95.50
13488;DHT22;6816;48.506;9.050;2023-02-15T03:44:27;0.20;95.60
13488;DHT22;6816;48.506;9.050;2023-02-15T03:47:35;0.20;95.40
13488;DHT22;6816;48.506;9.050;2023-02-15T03:50:38;0.20;95.50
13488;DHT22;6816;48.506;9.050;2023-02-15T03:54:02;0.10;95.30
13488;DHT22;6816;48.506;9.050;2023-02-15T03:57:06;0.10;95.30
13488;DHT22;6816;48.506;9.050;2023-02-15T04:00:25;0.00;95.40
13488;DHT22;6816;48.506;9.050;2023-02-15T04:03:56;0.00;95.30
13488;DHT22;6816;48.506;9.050;2023-02-15T04:06:58;0.10;95.20
13488;DHT22;6816;48.506;9.050;2023-02-15T04:09:58;-0.10;95.30
13488;DHT22;6816;48.506;9.050;2023-02-15T04:13:23;-0.10;95.30
13488;DHT22;6816;48.506;9.050;2023-02-15T04:16:25;-0.10;95.30
13488;DHT22;6816;48.506;9.050;2023-02-15T04:19:25;0.10;95.60
13488;DHT22;6816;48.506;9.050;2023-02-15T04:22:44;0.10;95.60
13488;DHT22;6816;48.506;9.050;2023-02-15T04:26:04;-0.10;95.50
13488;DHT22;6816;48.506;9.050;2023-02-15T04:29:04;0.20;95.50
13488;DHT22;6816;48.506;9.050;2023-02-15T04:32:05;-0.10;95.40
13488;DHT22;6816;48.506;9.050;2023-02-15T04:35:07;-0.10;95.30
13488;DHT22;6816;48.506;9.050;2023-02-15T04:38:08;-0.10;95.30
13488;DHT22;6816;48.506;9.050;2023-02-15T04:41:08;-0.10;95.30
13488;DHT22;6816;48.506;9.050;2023-02-15T04:44:11;-0.10;95.20
13488;DHT22;6816;48.506;9.050;2023-02-15T04:47:11;-0.10;95.20
13488;DHT22;6816;48.506;9.050;2023-02-15T04:50:12;-0.10;95.10
13488;DHT22;6816;48.506;9.050;2023-02-15T04:53:13;0.00;95.20
13488;DHT22;6816;48.506;9.050;2023-02-15T04:56:13;-0.20;95.20
13488;DHT22;6816;48.506;9.050;2023-02-15T04:59:14;-0.20;95.20
13488;DHT22;6816;48.506;9.050;2023-02-15T05:02:15;-0.20;95.20
13488;DHT22;6816;48.506;9.050;2023-02-15T05:05:15;-0.30;95.20
13488;DHT22;6816;48.506;9.050;2023-02-15T05:08:16;-0.20;95.60
13488;DHT22;6816;48.506;9.050;2023-02-15T05:11:17;-0.30;95.40
13488;DHT22;6816;48.506;9.050;2023-02-15T05:14:17;-0.20;95.40
13488;DHT22;6816;48.506;9.050;2023-02-15T05:17:18;-0.20;95.40
13488;DHT22;6816;48.506;9.050;2023-02-15T05:20:19;-0.20;95.40
13488;DHT22;6816;48.506;9.050;2023-02-15T05:23:19;-0.20;95.30
13488;DHT22;6816;48.506;9.050;2023-02-15T05:26:22;-0.20;95.30
13488;DHT22;6816;48.506;9.050;2023-02-15T05:29:43;-0.30;95.20
13488;DHT22;6816;48.506;9.050;2023-02-15T05:32:43;-0.30;95.10
13488;DHT22;6816;48.506;9.050;2023-02-15T05:35:44;-0.30;95.10
13488;DHT22;6816;48.506;9.050;2023-02-15T05:38:45;-0.30;95.10
13488;DHT22;6816;48.506;9.050;2023-02-15T05:41:45;-0.30;95.10
13488;DHT22;6816;48.506;9.050;2023-02-15T05:44:46;-0.30;95.10
13488;DHT22;6816;48.506;9.050;2023-02-15T05:47:46;-0.30;95.10
13488;DHT22;6816;48.506;9.050;2023-02-15T05:54:03;-0.40;95.00
13488;DHT22;6816;48.506;9.050;2023-02-15T05:57:03;-0.40;95.00
13488;DHT22;6816;48.506;9.050;2023-02-15T06:00:05;-0.40;95.00
13488;DHT22;6816;48.506;9.050;2023-02-15T06:03:06;-0.40;95.00
13488;DHT22;6816;48.506;9.050;2023-02-15T06:06:06;-0.40;95.00
13488;DHT22;6816;48.506;9.050;2023-02-15T06:09:07;-0.50;94.90
13488;DHT22;6816;48.506;9.050;2023-02-15T06:12:08;-0.20;94.90
13488;DHT22;6816;48.506;9.050;2023-02-15T06:15:08;-0.50;94.90
13488;DHT22;6816;48.506;9.050;2023-02-15T06:18:09;-0.40;94.90
13488;DHT22;6816;48.506;9.050;2023-02-15T06:21:10;-0.50;94.80
13488;DHT22;6816;48.506;9.050;2023-02-15T06:24:10;-0.50;94.80
13488;DHT22;6816;48.506;9.050;2023-02-15T06:27:11;-0.50;94.70
13488;DHT22;6816;48.506;9.050;2023-02-15T06:30:12;-0.40;94.60
13488;DHT22;6816;48.506;9.050;2023-02-15T06:33:13;-0.60;94.60
13488;DHT22;6816;48.506;9.050;2023-02-15T06:36:13;-0.60;94.50
13488;DHT22;6816;48.506;9.050;2023-02-15T06:39:14;-0.70;94.50
13488;DHT22;6816;48.506;9.050;2023-02-15T06:42:15;-0.70;94.60
13488;DHT22;6816;48.506;9.050;2023-02-15T06:45:15;-0.70;94.60
13488;DHT22;6816;48.506;9.050;2023-02-15T06:48:16;-0.70;94.60
13488;DHT22;6816;48.506;9.050;2023-02-15T06:51:17;-0.70;94.60
13488;DHT22;6816;48.506;9.050;2023-02-15T06:54:17;-0.70;94.60
13488;DHT22;6816;48.506;9.050;2023-02-15T06:57:18;-0.70;94.70
13488;DHT22;6816;48.506;9.050;2023-02-15T07:00:19;-0.70;95.00
13488;DHT22;6816;48.506;9.050;2023-02-15T07:03:19;-0.70;94.70
13488;DHT22;6816;48.506;9.050;2023-02-15T07:06:20;-0.70;94.80
13488;DHT22;6816;48.506;9.050;2023-02-15T07:09:21;-0.70;94.80
13488;DHT22;6816;48.506;9.050;2023-02-15T07:12:22;-0.70;94.80
13488;DHT22;6816;48.506;9.050;2023-02-15T07:15:41;-0.70;94.90
13488;DHT22;6816;48.506;9.050;2023-02-15T07:18:42;-0.70;94.90
13488;DHT22;6816;48.506;9.050;2023-02-15T07:21:42;-0.70;95.00
13488;DHT22;6816;48.506;9.050;2023-02-15T07:24:45;-0.40;95.50
13488;DHT22;6816;48.506;9.050;2023-02-15T07:27:46;-0.60;95.20
13488;DHT22;6816;48.506;9.050;2023-02-15T07:30:47;-0.60;95.20
13488;DHT22;6816;48.506;9.050;2023-02-15T07:33:48;-0.60;95.30
13488;DHT22;6816;48.506;9.050;2023-02-15T07:36:50;-0.60;95.30
13488;DHT22;6816;48.506;9.050;2023-02-15T07:39:52;-0.50;95.40
13488;DHT22;6816;48.506;9.050;2023-02-15T07:42:52;-0.50;95.50
13488;DHT22;6816;48.506;9.050;2023-02-15T07:46:06;-0.40;95.60
13488;DHT22;6816;48.506;9.050;2023-02-15T07:49:07;-0.30;96.10
13488;DHT22;6816;48.506;9.050;2023-02-15T07:52:08;-0.20;95.90
13488;DHT22;6816;48.506;9.050;2023-02-15T07:55:09;-0.10;96.00
13488;DHT22;6816;48.506;9.050;2023-02-15T07:58:12;-0.10;96.10
13488;DHT22;6816;48.506;9.050;2023-02-15T08:01:14;0.00;96.10
13488;DHT22;6816;48.506;9.050;2023-02-15T08:04:15;0.20;96.30
13488;DHT22;6816;48.506;9.050;2023-02-15T08:07:15;0.10;96.30
13488;DHT22;6816;48.506;9.050;2023-02-15T08:10:16;0.30;96.40
13488;DHT22;6816;48.506;9.050;2023-02-15T08:13:36;0.30;96.40
13488;DHT22;6816;48.506;9.050;2023-02-15T08:16:55;0.40;96.40
13488;DHT22;6816;48.506;9.050;2023-02-15T08:19:56;0.50;96.50
13488;DHT22;6816;48.506;9.050;2023-02-15T08:22:57;0.50;96.60
13488;DHT22;6816;48.506;9.050;2023-02-15T08:25:59;0.60;96.70
13488;DHT22;6816;48.506;9.050;2023-02-15T08:29:01;0.80;96.80
13488;DHT22;6816;48.506;9.050;2023-02-15T08:32:05;0.90;96.90
13488;DHT22;6816;48.506;9.050;2023-02-15T08:35:06;0.90;97.00
13488;DHT22;6816;48.506;9.050;2023-02-15T08:38:06;0.90;97.00
13488;DHT22;6816;48.506;9.050;2023-02-15T08:41:12;1.00;97.10
13488;DHT22;6816;48.506;9.050;2023-02-15T08:44:15;1.10;97.20
13488;DHT22;6816;48.506;9.050;2023-02-15T08:47:16;1.20;97.30
13488;DHT22;6816;48.506;9.050;2023-02-15T08:50:17;1.20;97.30
13488;DHT22;6816;48.506;9.050;2023-02-15T08:53:17;1.30;97.40
13488;DHT22;6816;48.506;9.050;2023-02-15T08:56:27;1.50;97.50
13488;DHT22;6816;48.506;9.050;2023-02-15T08:59:28;1.50;97.50
13488;DHT22;6816;48.506;9.050;2023-02-15T09:02:28;1.50;97.60
13488;DHT22;6816;48.506;9.050;2023-02-15T09:05:29;1.60;97.70
13488;DHT22;6816;48.506;9.050;2023-02-15T09:08:30;1.70;97.80
13488;DHT22;6816;48.506;9.050;2023-02-15T09:11:34;1.80;97.90
13488;DHT22;6816;48.506;9.050;2023-02-15T09:14:34;2.00;98.00
13488;DHT22;6816;48.506;9.050;2023-02-15T09:17:35;1.90;98.10
13488;DHT22;6816;48.506;9.050;2023-02-15T09:20:36;2.00;98.20
13488;DHT22;6816;48.506;9.050;2023-02-15T09:23:36;2.10;98.30
13488;DHT22;6816;48.506;9.050;2023-02-15T09:26:40;2.30;98.50
13488;DHT22;6816;48.506;9.050;2023-02-15T09:29:41;2.40;98.60
13488;DHT22;6816;48.506;9.050;2023-02-15T09:32:42;2.40;98.90
13488;DHT22;6816;48.506;9.050;2023-02-15T09:35:42;2.50;99.20
13488;DHT22;6816;48.506;9.050;2023-02-15T09:38:44;2.70;99.30
13488;DHT22;6816;48.506;9.050;2023-02-15T09:45:40;3.00;99.50
13488;DHT22;6816;48.506;9.050;2023-02-15T09:48:45;3.20;99.70
13488;DHT22;6816;48.506;9.050;2023-02-15T09:55:09;3.60;99.90
13488;DHT22;6816;48.506;9.050;2023-02-15T09:58:31;3.90;99.90
13488;DHT22;6816;48.506;9.050;2023-02-15T10:28:17;6.70;99.90
13488;DHT22;6816;48.506;9.050;2023-02-15T10:31:31;7.10;99.90
13488;DHT22;6816;48.506;9.050;2023-02-15T10:35:07;7.50;99.90
13488;DHT22;6816;48.506;9.050;2023-02-15T11:04:30;11.00;97.40
13488;DHT22;6816;48.506;9.050;2023-02-15T11:07:39;11.40;97.90
13488;DHT22;6816;48.506;9.050;2023-02-15T11:10:55;11.90;96.90
13488;DHT22;6816;48.506;9.050;2023-02-15T11:14:03;12.20;93.80
13488;DHT22;6816;48.506;9.050;2023-02-15T11:17:14;12.50;94.20
13488;DHT22;6816;48.506;9.050;2023-02-15T11:20:24;12.80;94.40
13488;DHT22;6816;48.506;9.050;2023-02-15T11:23:28;13.10;93.90
13488;DHT22;6816;48.506;9.050;2023-02-15T11:30:05;13.70;94.80
13488;DHT22;6816;48.506;9.050;2023-02-15T11:33:19;14.10;91.70
13488;DHT22;6816;48.506;9.050;2023-02-15T11:36:28;14.40;91.80
13488;DHT22;6816;48.506;9.050;2023-02-15T11:39:33;14.60;91.70
13488;DHT22;6816;48.506;9.050;2023-02-15T11:42:35;14.70;92.80
13488;DHT22;6816;48.506;9.050;2023-02-15T11:45:36;14.80;92.50
13488;DHT22;6816;48.506;9.050;2023-02-15T11:48:36;14.90;91.80
13488;DHT22;6816;48.506;9.050;2023-02-15T11:51:37;14.90;91.10
13488;DHT22;6816;48.506;9.050;2023-02-15T11:54:41;14.90;91.20
13488;DHT22;6816;48.506;9.050;2023-02-15T11:57:49;14.90;90.30
13488;DHT22;6816;48.506;9.050;2023-02-15T12:01:46;14.90;90.20
13488;DHT22;6816;48.506;9.050;2023-02-15T12:04:41;14.90;87.40
13488;DHT22;6816;48.506;9.050;2023-02-15T12:07:53;14.90;86.60
13488;DHT22;6816;48.506;9.050;2023-02-15T12:11:12;14.80;87.90
13488;DHT22;6816;48.506;9.050;2023-02-15T12:14:14;14.80;90.50
13488;DHT22;6816;48.506;9.050;2023-02-15T12:17:18;15.00;92.00
13488;DHT22;6816;48.506;9.050;2023-02-15T12:20:33;15.20;91.90
13488;DHT22;6816;48.506;9.050;2023-02-15T12:23:34;15.40;92.20
13488;DHT22;6816;48.506;9.050;2023-02-15T12:26:40;15.80;92.20
13488;DHT22;6816;48.506;9.050;2023-02-15T12:29:45;16.30;93.00
13488;DHT22;6816;48.506;9.050;2023-02-15T12:33:17;16.80;92.60
13488;DHT22;6816;48.506;9.050;2023-02-15T12:36:32;17.20;86.60
13488;DHT22;6816;48.506;9.050;2023-02-15T12:39:52;17.60;86.50
13488;DHT22;6816;48.506;9.050;2023-02-15T12:42:54;17.80;87.10
13488;DHT22;6816;48.506;9.050;2023-02-15T12:46:14;17.90;90.00
13488;DHT22;6816;48.506;9.050;2023-02-15T12:49:20;18.10;81.50
13488;DHT22;6816;48.506;9.050;2023-02-15T12:55:26;18.30;87.60
13488;DHT22;6816;48.506;9.050;2023-02-15T12:58:40;18.20;83.70
13488;DHT22;6816;48.506;9.050;2023-02-15T13:01:42;18.20;83.70
13488;DHT22;6816;48.506;9.050;2023-02-15T13:04:48;18.40;86.70
13488;DHT22;6816;48.506;9.050;2023-02-15T13:07:53;18.40;82.40
13488;DHT22;6816;48.506;9.050;2023-02-15T13:14:21;18.80;83.20
13488;DHT22;6816;48.506;9.050;2023-02-15T13:17:27;19.10;78.00
13488;DHT22;6816;48.506;9.050;2023-02-15T13:20:32;19.30;83.10
13488;DHT22;6816;48.506;9.050;2023-02-15T13:23:35;19.60;84.10
13488;DHT22;6816;48.506;9.050;2023-02-15T13:26:35;19.60;82.70
13488;DHT22;6816;48.506;9.050;2023-02-15T13:29:37;19.50;80.70
13488;DHT22;6816;48.506;9.050;2023-02-15T13:32:40;19.50;79.80
13488;DHT22;6816;48.506;9.050;2023-02-15T13:35:56;19.50;79.00
13488;DHT22;6816;48.506;9.050;2023-02-15T13:42:31;19.40;72.00
13488;DHT22;6816;48.506;9.050;2023-02-15T13:45:50;19.30;70.70
13488;DHT22;6816;48.506;9.050;2023-02-15T13:52:35;19.10;71.00
13488;DHT22;6816;48.506;9.050;2023-02-15T14:09:21;18.40;70.20
13488;DHT22;6816;48.506;9.050;2023-02-15T14:16:36;18.00;70.00
13488;DHT22;6816;48.506;9.050;2023-02-15T14:26:56;17.40;72.50
13488;DHT22;6816;48.506;9.050;2023-02-15T14:30:03;17.20;75.70
13488;DHT22;6816;48.506;9.050;2023-02-15T14:36:20;16.90;73.70
13488;DHT22;6816;48.506;9.050;2023-02-15T14:39:25;16.80;78.60
13488;DHT22;6816;48.506;9.050;2023-02-15T14:52:15;16.20;76.60
13488;DHT22;6816;48.506;9.050;2023-02-15T14:55:35;16.20;77.40
13488;DHT22;6816;48.506;9.050;2023-02-15T14:59:16;16.10;72.90
13488;DHT22;6816;48.506;9.050;2023-02-15T15:05:33;15.90;77.10
13488;DHT22;6816;48.506;9.050;2023-02-15T15:08:38;15.80;75.10
13488;DHT22;6816;48.506;9.050;2023-02-15T15:11:48;15.80;76.70
13488;DHT22;6816;48.506;9.050;2023-02-15T15:14:50;15.70;74.30
13488;DHT22;6816;48.506;9.050;2023-02-15T15:21:03;15.50;73.90
13488;DHT22;6816;48.506;9.050;2023-02-15T15:24:06;15.50;77.50
13488;DHT22;6816;48.506;9.050;2023-02-15T15:30:48;15.40;72.40
13488;DHT22;6816;48.506;9.050;2023-02-15T15:45:14;15.00;78.70
13488;DHT22;6816;48.506;9.050;2023-02-15T15:51:01;14.90;76.20
13488;DHT22;6816;48.506;9.050;2023-02-15T15:54:02;14.80;78.30
13488;DHT22;6816;48.506;9.050;2023-02-15T15:57:04;14.70;79.20
13488;DHT22;6816;48.506;9.050;2023-02-15T16:00:30;14.70;79.00
13488;DHT22;6816;48.506;9.050;2023-02-15T16:03:33;14.60;74.70
13488;DHT22;6816;48.506;9.050;2023-02-15T16:06:36;14.50;79.70
13488;DHT22;6816;48.506;9.050;2023-02-15T16:09:38;14.50;78.90
13488;DHT22;6816;48.506;9.050;2023-02-15T16:12:39;14.40;79.20
13488;DHT22;6816;48.506;9.050;2023-02-15T16:15:45;14.30;78.90
13488;DHT22;6816;48.506;9.050;2023-02-15T16:18:50;14.20;77.70
13488;DHT22;6816;48.506;9.050;2023-02-15T16:21:51;14.10;79.10
13488;DHT22;6816;48.506;9.050;2023-02-15T16:28:11;14.00;76.20
13488;DHT22;6816;48.506;9.050;2023-02-15T16:31:14;13.90;78.00
13488;DHT22;6816;48.506;9.050;2023-02-15T16:34:18;13.80;78.90
13488;DHT22;6816;48.506;9.050;2023-02-15T16:37:21;13.60;78.20
13488;DHT22;6816;48.506;9.050;2023-02-15T16:43:26;13.30;79.60
13488;DHT22;6816;48.506;9.050;2023-02-15T16:46:32;13.20;79.20
13488;DHT22;6816;48.506;9.050;2023-02-15T16:49:34;13.00;79.80
13488;DHT22;6816;48.506;9.050;2023-02-15T16:52:34;12.90;79.70
13488;DHT22;6816;48.506;9.050;2023-02-15T16:55:39;12.70;79.70
13488;DHT22;6816;48.506;9.050;2023-02-15T16:58:44;12.50;78.90
13488;DHT22;6816;48.506;9.050;2023-02-15T17:01:46;12.40;79.30
13488;DHT22;6816;48.506;9.050;2023-02-15T17:05:10;12.20;80.10
13488;DHT22;6816;48.506;9.050;2023-02-15T17:08:19;12.00;77.70
13488;DHT22;6816;48.506;9.050;2023-02-15T17:11:40;11.90;80.70
13488;DHT22;6816;48.506;9.050;2023-02-15T17:14:41;11.60;78.10
13488;DHT22;6816;48.506;9.050;2023-02-15T17:17:42;11.50;81.10
13488;DHT22;6816;48.506;9.050;2023-02-15T17:20:43;11.30;81.10
13488;DHT22;6816;48.506;9.050;2023-02-15T17:23:47;11.10;81.30
13488;DHT22;6816;48.506;9.050;2023-02-15T17:26:51;11.10;81.70
13488;DHT22;6816;48.506;9.050;2023-02-15T17:30:13;10.90;81.50
13488;DHT22;6816;48.506;9.050;2023-02-15T17:36:25;10.60;81.30
13488;DHT22;6816;48.506;9.050;2023-02-15T17:39:28;10.40;82.10
13488;DHT22;6816;48.506;9.050;2023-02-15T17:42:29;10.30;82.30
13488;DHT22;6816;48.506;9.050;2023-02-15T17:45:35;10.20;82.30
13488;DHT22;6816;48.506;9.050;2023-02-15T17:48:39;9.90;81.40
13488;DHT22;6816;48.506;9.050;2023-02-15T17:51:41;9.70;82.10
13488;DHT22;6816;48.506;9.050;2023-02-15T17:54:42;9.50;82.60
13488;DHT22;6816;48.506;9.050;2023-02-15T17:58:10;9.50;82.80
13488;DHT22;6816;48.506;9.050;2023-02-15T18:01:16;9.10;82.90
13488;DHT22;6816;48.506;9.050;2023-02-15T18:04:36;9.00;82.90
13488;DHT22;6816;48.506;9.050;2023-02-15T18:07:56;8.80;83.50
13488;DHT22;6816;48.506;9.050;2023-02-15T18:11:15;8.60;83.80
13488;DHT22;6816;48.506;9.050;2023-02-15T18:14:34;8.40;83.80
13488;DHT22;6816;48.506;9.050;2023-02-15T18:17:38;8.30;84.00
13488;DHT22;6816;48.506;9.050;2023-02-15T18:20:39;8.10;83.80
13488;DHT22;6816;48.506;9.050;2023-02-15T18:23:41;7.90;84.30
13488;DHT22;6816;48.506;9.050;2023-02-15T18:26:42;7.80;84.60
13488;DHT22;6816;48.506;9.050;2023-02-15T18:29:42;7.70;84.90
13488;DHT22;6816;48.506;9.050;2023-02-15T18:32:44;7.50;85.10
13488;DHT22;6816;48.506;9.050;2023-02-15T18:35:46;7.50;85.20
13488;DHT22;6816;48.506;9.050;2023-02-15T18:38:49;7.30;85.30
13488;DHT22;6816;48.506;9.050;2023-02-15T18:41:50;7.20;85.50
13488;DHT22;6816;48.506;9.050;2023-02-15T18:44:57;7.00;85.60
13488;DHT22;6816;48.506;9.050;2023-02-15T18:47:58;6.90;85.80
13488;DHT22;6816;48.506;9.050;2023-02-15T18:50:58;6.80;86.50
13488;DHT22;6816;48.506;9.050;2023-02-15T18:53:59;6.70;86.70
13488;DHT22;6816;48.506;9.050;2023-02-15T18:57:04;6.70;87.10
13488;DHT22;6816;48.506;9.050;2023-02-15T19:00:09;6.60;87.10
13488;DHT22;6816;48.506;9.050;2023-02-15T19:03:15;6.50;87.20
13488;DHT22;6816;48.506;9.050;2023-02-15T19:06:19;6.40;87.40
13488;DHT22;6816;48.506;9.050;2023-02-15T19:09:22;6.40;87.30
13488;DHT22;6816;48.506;9.050;2023-02-15T19:12:24;6.30;87.20
13488;DHT22;6816;48.506;9.050;2023-02-15T19:15:27;6.20;87.50
13488;DHT22;6816;48.506;9.050;2023-02-15T19:18:29;6.10;87.60
13488;DHT22;6816;48.506;9.050;2023-02-15T19:21:30;6.00;87.90
13488;DHT22;6816;48.506;9.050;2023-02-15T19:24:38;5.90;88.00
13488;DHT22;6816;48.506;9.050;2023-02-15T19:27:39;6.00;87.70
13488;DHT22;6816;48.506;9.050;2023-02-15T19:30:40;5.80;88.10
13488;DHT22;6816;48.506;9.050;2023-02-15T19:33:41;5.70;88.30
13488;DHT22;6816;48.506;9.050;2023-02-15T19:36:43;5.60;88.40
13488;DHT22;6816;48.506;9.050;2023-02-15T19:39:45;5.70;88.20
13488;DHT22;6816;48.506;9.050;2023-02-15T19:42:45;5.40;88.10
13488;DHT22;6816;48.506;9.050;2023-02-15T19:45:46;5.50;88.20
13488;DHT22;6816;48.506;9.050;2023-02-15T19:48:51;5.20;88.10
13488;DHT22;6816;48.506;9.050;2023-02-15T19:51:52;5.10;88.40
13488;DHT22;6816;48.506;9.050;2023-02-15T19:54:53;5.00;88.90
13488;DHT22;6816;48.506;9.050;2023-02-15T19:57:55;5.00;89.30
13488;DHT22;6816;48.506;9.050;2023-02-15T20:00:56;4.90;89.60
13488;DHT22;6816;48.506;9.050;2023-02-15T20:03:57;4.80;89.70
13488;DHT22;6816;48.506;9.050;2023-02-15T20:07:00;4.80;90.00
13488;DHT22;6816;48.506;9.050;2023-02-15T20:10:02;4.80;90.10
13488;DHT22;6816;48.506;9.050;2023-02-15T20:13:03;4.80;90.20
13488;DHT22;6816;48.506;9.050;2023-02-15T20:16:03;4.70;90.20
13488;DHT22;6816;48.506;9.050;2023-02-15T20:19:07;4.70;90.20
13488;DHT22;6816;48.506;9.050;2023-02-15T20:22:26;4.70;90.00
13488;DHT22;6816;48.506;9.050;2023-02-15T20:25:30;4.60;88.90
13488;DHT22;6816;48.506;9.050;2023-02-15T20:28:33;4.50;89.60
13488;DHT22;6816;48.506;9.050;2023-02-15T20:31:34;4.40;89.60
13488;DHT22;6816;48.506;9.050;2023-02-15T20:34:35;4.40;89.90
13488;DHT22;6816;48.506;9.050;2023-02-15T20:37:35;4.20;89.90
13488;DHT22;6816;48.506;9.050;2023-02-15T20:40:36;4.30;90.00
13488;DHT22;6816;48.506;9.050;2023-02-15T20:43:56;4.10;90.10
13488;DHT22;6816;48.506;9.050;2023-02-15T20:46:58;4.00;90.20
13488;DHT22;6816;48.506;9.050;2023-02-15T20:49:59;3.90;90.20
13488;DHT22;6816;48.506;9.050;2023-02-15T20:53:01;4.00;90.30
13488;DHT22;6816;48.506;9.050;2023-02-15T20:56:02;3.80;90.30
13488;DHT22;6816;48.506;9.050;2023-02-15T20:59:39;3.80;90.30
13488;DHT22;6816;48.506;9.050;2023-02-15T21:02:32;3.70;90.40
13488;DHT22;6816;48.506;9.050;2023-02-15T21:05:35;3.80;90.60
13488;DHT22;6816;48.506;9.050;2023-02-15T21:08:36;3.60;90.60
13488;DHT22;6816;48.506;9.050;2023-02-15T21:11:36;3.50;90.70
13488;DHT22;6816;48.506;9.050;2023-02-15T21:14:37;3.50;90.80
13488;DHT22;6816;48.506;9.050;2023-02-15T21:17:38;3.60;90.90
13488;DHT22;6816;48.506;9.050;2023-02-15T21:20:44;3.40;90.90
13488;DHT22;6816;48.506;9.050;2023-02-15T21:23:45;3.50;91.40
13488;DHT22;6816;48.506;9.050;2023-02-15T21:26:59;3.60;91.20
13488;DHT22;6816;48.506;9.050;2023-02-15T21:30:00;3.40;91.40
13488;DHT22;6816;48.506;9.050;2023-02-15T21:33:01;3.40;91.20
13488;DHT22;6816;48.506;9.050;2023-02-15T21:36:02;3.40;91.20
13488;DHT22;6816;48.506;9.050;2023-02-15T21:39:03;3.40;91.30
13488;DHT22;6816;48.506;9.050;2023-02-15T21:42:08;3.40;91.30
13488;DHT22;6816;48.506;9.050;2023-02-15T21:45:28;3.30;91.30
13488;DHT22;6816;48.506;9.050;2023-02-15T21:48:47;3.30;91.30
13488;DHT22;6816;48.506;9.050;2023-02-15T21:51:48;3.20;91.10
13488;DHT22;6816;48.506;9.050;2023-02-15T21:55:13;3.20;91.10
13488;DHT22;6816;48.506;9.050;2023-02-15T21:58:22;3.10;90.90
13488;DHT22;6816;48.506;9.050;2023-02-15T22:01:25;3.00;90.90
13488;DHT22;6816;48.506;9.050;2023-02-15T22:04:28;2.90;91.00
13488;DHT22;6816;48.506;9.050;2023-02-15T22:07:29;2.90;91.10
13488;DHT22;6816;48.506;9.050;2023-02-15T22:10:31;2.90;91.20
13488;DHT22;6816;48.506;9.050;2023-02-15T22:13:33;2.70;91.20
13488;DHT22;6816;48.506;9.050;2023-02-15T22:16:34;2.70;91.20
13488;DHT22;6816;48.506;9.050;2023-02-15T22:19:35;2.60;91.30
13488;DHT22;6816;48.506;9.050;2023-02-15T22:22:35;2.50;91.20
13488;DHT22;6816;48.506;9.050;2023-02-15T22:25:36;2.50;91.30
13488;DHT22;6816;48.506;9.050;2023-02-15T22:28:38;2.40;91.40
13488;DHT22;6816;48.506;9.050;2023-02-15T22:31:39;2.30;91.50
13488;DHT22;6816;48.506;9.050;2023-02-15T22:34:40;2.30;91.60
13488;DHT22;6816;48.506;9.050;2023-02-15T22:37:40;2.30;91.70
13488;DHT22;6816;48.506;9.050;2023-02-15T22:40:41;2.20;91.70
13488;DHT22;6816;48.506;9.050;2023-02-15T22:43:43;2.40;91.80
13488;DHT22;6816;48.506;9.050;2023-02-15T22:46:44;2.50;91.90